Main page
METAR-TAF:

METAR-TAF

Airports :

Miami, Florida, United States

Miami International Airport

latitude: 25-47-26N, longitude: 080-18-59W, elevation: 3 m

Current weather observation

The report was made 36 minutes ago, at 06:53 UTC
Wind 3 kt from the Northwest
Temperature 27°C
Humidity 84%
Pressure 1015 hPa
Visibility: 16.1 km
Few clouds at a height of 3000 ft

METAR: KMIA 190653Z 32003KT 10SM FEW030 27/24 A2998 RMK AO2 SLP151 T02720239

Time: 03:29 (07:29 UTC)

Forecast

The report was made 1 hour and 52 minutes ago, at 05:37 UTC
Forecast valid from 19 at 06 UTC to 20 at 06 UTC
Wind 3 kt from variable directions
Visibility: 10 km
Few clouds at a height of 3000 ft
From 19 at 1700 UTC
Wind 10 kt from the East
Visibility: 10 km
Scattered clouds at a height of 3000 ft
showers in vicinity
From 20 at 0000 UTC
Wind 5 kt from the East
Visibility: 10 km
Broken clouds at a height of 3000 ft
showers in vicinity

TAF: KMIA 190537Z 1906/2006 VRB03KT P6SM FEW030 FM191700 09010KT P6SM VCSH SCT030 FM200000 09005KT P6SM VCSH BKN030

Weather observations and forecasts of more than 4000 airports (METAR and TAF reports).

The available stations are represented by yellow and red dots on the map.

Hover mouse over dot to see the name of the station.

Then click to see weather observations and forecasts.

To change the map : click on the green buttons with a black cross to zoom in, on the green button with a dash to zoom out, or on the green arrows for adjacent maps.


METAR-TAF: